sensor_id;sensor_type;location;lat;lon;timestamp;P1;durP1;ratioP1;P2;durP2;ratioP2
29384;SDS011;16367;48.736;9.218;2022-11-23T00:01:28;7.40;;;1.90;;
29384;SDS011;16367;48.736;9.218;2022-11-23T00:03:33;6.40;;;1.95;;
29384;SDS011;16367;48.736;9.218;2022-11-23T00:05:37;5.80;;;1.60;;
29384;SDS011;16367;48.736;9.218;2022-11-23T00:07:40;7.32;;;2.22;;
29384;SDS011;16367;48.736;9.218;2022-11-23T00:09:42;7.43;;;2.10;;
29384;SDS011;16367;48.736;9.218;2022-11-23T00:11:45;4.25;;;1.75;;
29384;SDS011;16367;48.736;9.218;2022-11-23T00:13:48;5.07;;;1.80;;
29384;SDS011;16367;48.736;9.218;2022-11-23T00:15:51;5.72;;;1.55;;
29384;SDS011;16367;48.736;9.218;2022-11-23T00:17:54;6.53;;;1.83;;
29384;SDS011;16367;48.736;9.218;2022-11-23T00:19:57;7.55;;;1.95;;
29384;SDS011;16367;48.736;9.218;2022-11-23T00:22:01;5.75;;;1.70;;
29384;SDS011;16367;48.736;9.218;2022-11-23T00:24:04;6.65;;;1.88;;
29384;SDS011;16367;48.736;9.218;2022-11-23T00:26:07;5.85;;;2.13;;
29384;SDS011;16367;48.736;9.218;2022-11-23T00:28:10;4.53;;;1.63;;
29384;SDS011;16367;48.736;9.218;2022-11-23T00:30:13;9.68;;;2.00;;
29384;SDS011;16367;48.736;9.218;2022-11-23T00:32:16;8.65;;;1.80;;
29384;SDS011;16367;48.736;9.218;2022-11-23T00:34:19;6.88;;;1.90;;
29384;SDS011;16367;48.736;9.218;2022-11-23T00:36:22;8.27;;;2.10;;
29384;SDS011;16367;48.736;9.218;2022-11-23T00:38:27;8.82;;;2.20;;
29384;SDS011;16367;48.736;9.218;2022-11-23T00:40:31;6.57;;;1.70;;
29384;SDS011;16367;48.736;9.218;2022-11-23T00:42:33;5.15;;;1.77;;
29384;SDS011;16367;48.736;9.218;2022-11-23T00:44:38;6.57;;;2.00;;
29384;SDS011;16367;48.736;9.218;2022-11-23T00:46:41;8.93;;;2.70;;
29384;SDS011;16367;48.736;9.218;2022-11-23T00:48:44;6.57;;;1.88;;
29384;SDS011;16367;48.736;9.218;2022-11-23T00:50:48;8.63;;;2.47;;
29384;SDS011;16367;48.736;9.218;2022-11-23T00:52:51;8.43;;;2.10;;
29384;SDS011;16367;48.736;9.218;2022-11-23T00:54:55;6.18;;;2.03;;
29384;SDS011;16367;48.736;9.218;2022-11-23T00:56:58;7.85;;;2.15;;
29384;SDS011;16367;48.736;9.218;2022-11-23T00:59:01;5.60;;;1.98;;
29384;SDS011;16367;48.736;9.218;2022-11-23T01:01:05;5.65;;;2.10;;
29384;SDS011;16367;48.736;9.218;2022-11-23T01:03:09;7.45;;;1.85;;
29384;SDS011;16367;48.736;9.218;2022-11-23T01:05:12;5.35;;;1.98;;
29384;SDS011;16367;48.736;9.218;2022-11-23T01:07:14;6.43;;;1.83;;
29384;SDS011;16367;48.736;9.218;2022-11-23T01:09:17;6.30;;;1.83;;
29384;SDS011;16367;48.736;9.218;2022-11-23T01:11:27;7.82;;;2.30;;
29384;SDS011;16367;48.736;9.218;2022-11-23T01:13:31;5.78;;;1.90;;
29384;SDS011;16367;48.736;9.218;2022-11-23T01:15:34;8.10;;;1.65;;
29384;SDS011;16367;48.736;9.218;2022-11-23T01:17:37;6.05;;;1.63;;
29384;SDS011;16367;48.736;9.218;2022-11-23T01:19:40;9.80;;;1.98;;
29384;SDS011;16367;48.736;9.218;2022-11-23T01:21:43;5.20;;;1.60;;
29384;SDS011;16367;48.736;9.218;2022-11-23T01:23:45;5.20;;;1.70;;
29384;SDS011;16367;48.736;9.218;2022-11-23T01:25:48;6.90;;;2.10;;
29384;SDS011;16367;48.736;9.218;2022-11-23T01:27:58;5.28;;;1.67;;
29384;SDS011;16367;48.736;9.218;2022-11-23T01:30:01;7.45;;;1.95;;
29384;SDS011;16367;48.736;9.218;2022-11-23T01:32:04;6.20;;;1.65;;
29384;SDS011;16367;48.736;9.218;2022-11-23T01:34:06;7.38;;;1.80;;
29384;SDS011;16367;48.736;9.218;2022-11-23T01:36:12;4.63;;;1.35;;
29384;SDS011;16367;48.736;9.218;2022-11-23T01:38:16;3.30;;;1.25;;
29384;SDS011;16367;48.736;9.218;2022-11-23T01:40:19;5.45;;;1.60;;
29384;SDS011;16367;48.736;9.218;2022-11-23T01:42:36;6.03;;;1.60;;
29384;SDS011;16367;48.736;9.218;2022-11-23T01:44:42;6.60;;;1.52;;
29384;SDS011;16367;48.736;9.218;2022-11-23T01:46:45;10.93;;;1.60;;
29384;SDS011;16367;48.736;9.218;2022-11-23T01:48:49;6.57;;;1.70;;
29384;SDS011;16367;48.736;9.218;2022-11-23T01:50:54;4.45;;;1.50;;
29384;SDS011;16367;48.736;9.218;2022-11-23T01:52:59;5.68;;;1.55;;
29384;SDS011;16367;48.736;9.218;2022-11-23T01:55:02;8.13;;;1.40;;
29384;SDS011;16367;48.736;9.218;2022-11-23T01:57:09;4.72;;;1.45;;
29384;SDS011;16367;48.736;9.218;2022-11-23T01:59:18;3.67;;;1.35;;
29384;SDS011;16367;48.736;9.218;2022-11-23T02:01:24;6.80;;;1.42;;
29384;SDS011;16367;48.736;9.218;2022-11-23T02:03:27;6.82;;;1.60;;
29384;SDS011;16367;48.736;9.218;2022-11-23T02:05:32;8.38;;;1.80;;
29384;SDS011;16367;48.736;9.218;2022-11-23T02:07:39;6.03;;;2.10;;
29384;SDS011;16367;48.736;9.218;2022-11-23T02:09:43;5.03;;;1.27;;
29384;SDS011;16367;48.736;9.218;2022-11-23T02:11:47;3.72;;;1.23;;
29384;SDS011;16367;48.736;9.218;2022-11-23T02:13:49;8.40;;;1.98;;
29384;SDS011;16367;48.736;9.218;2022-11-23T02:15:53;4.82;;;1.58;;
29384;SDS011;16367;48.736;9.218;2022-11-23T02:17:58;7.07;;;1.48;;
29384;SDS011;16367;48.736;9.218;2022-11-23T02:20:06;5.70;;;1.50;;
29384;SDS011;16367;48.736;9.218;2022-11-23T02:22:13;4.53;;;1.40;;
29384;SDS011;16367;48.736;9.218;2022-11-23T02:24:25;4.75;;;1.45;;
29384;SDS011;16367;48.736;9.218;2022-11-23T02:26:33;4.20;;;1.52;;
29384;SDS011;16367;48.736;9.218;2022-11-23T02:28:39;8.20;;;1.55;;
29384;SDS011;16367;48.736;9.218;2022-11-23T02:30:46;4.63;;;1.50;;
29384;SDS011;16367;48.736;9.218;2022-11-23T02:32:51;5.60;;;1.70;;
29384;SDS011;16367;48.736;9.218;2022-11-23T02:34:54;6.15;;;1.60;;
29384;SDS011;16367;48.736;9.218;2022-11-23T02:36:57;4.15;;;1.50;;
29384;SDS011;16367;48.736;9.218;2022-11-23T02:39:00;4.05;;;1.20;;
29384;SDS011;16367;48.736;9.218;2022-11-23T02:41:08;9.10;;;1.88;;
29384;SDS011;16367;48.736;9.218;2022-11-23T02:43:12;7.55;;;1.60;;
29384;SDS011;16367;48.736;9.218;2022-11-23T02:45:17;7.32;;;1.92;;
29384;SDS011;16367;48.736;9.218;2022-11-23T02:47:28;7.22;;;2.30;;
29384;SDS011;16367;48.736;9.218;2022-11-23T02:49:31;4.32;;;1.45;;
29384;SDS011;16367;48.736;9.218;2022-11-23T02:51:34;8.07;;;2.08;;
29384;SDS011;16367;48.736;9.218;2022-11-23T02:53:37;4.13;;;1.33;;
29384;SDS011;16367;48.736;9.218;2022-11-23T02:55:40;5.85;;;1.90;;
29384;SDS011;16367;48.736;9.218;2022-11-23T02:57:43;8.48;;;1.70;;
29384;SDS011;16367;48.736;9.218;2022-11-23T02:59:47;7.65;;;1.90;;
29384;SDS011;16367;48.736;9.218;2022-11-23T03:01:50;6.10;;;1.52;;
29384;SDS011;16367;48.736;9.218;2022-11-23T03:03:53;5.60;;;2.10;;
29384;SDS011;16367;48.736;9.218;2022-11-23T03:05:55;3.65;;;1.70;;
29384;SDS011;16367;48.736;9.218;2022-11-23T03:07:58;7.40;;;1.77;;
29384;SDS011;16367;48.736;9.218;2022-11-23T03:10:01;6.60;;;1.90;;
29384;SDS011;16367;48.736;9.218;2022-11-23T03:12:04;6.93;;;1.85;;
29384;SDS011;16367;48.736;9.218;2022-11-23T03:14:07;3.85;;;1.40;;
29384;SDS011;16367;48.736;9.218;2022-11-23T03:16:11;5.72;;;1.77;;
29384;SDS011;16367;48.736;9.218;2022-11-23T03:18:14;6.85;;;1.73;;
29384;SDS011;16367;48.736;9.218;2022-11-23T03:20:17;5.65;;;1.23;;
29384;SDS011;16367;48.736;9.218;2022-11-23T03:22:20;4.90;;;1.50;;
29384;SDS011;16367;48.736;9.218;2022-11-23T03:24:23;6.47;;;1.58;;
29384;SDS011;16367;48.736;9.218;2022-11-23T03:26:25;4.45;;;1.60;;
29384;SDS011;16367;48.736;9.218;2022-11-23T03:28:28;6.43;;;1.50;;
29384;SDS011;16367;48.736;9.218;2022-11-23T03:30:31;7.65;;;1.50;;
29384;SDS011;16367;48.736;9.218;2022-11-23T03:32:35;5.80;;;1.20;;
29384;SDS011;16367;48.736;9.218;2022-11-23T03:34:38;4.70;;;1.48;;
29384;SDS011;16367;48.736;9.218;2022-11-23T03:36:41;4.80;;;1.30;;
29384;SDS011;16367;48.736;9.218;2022-11-23T03:38:44;6.68;;;1.58;;
29384;SDS011;16367;48.736;9.218;2022-11-23T03:40:47;5.32;;;1.48;;
29384;SDS011;16367;48.736;9.218;2022-11-23T03:42:49;4.85;;;1.23;;
29384;SDS011;16367;48.736;9.218;2022-11-23T03:44:52;6.43;;;1.30;;
29384;SDS011;16367;48.736;9.218;2022-11-23T03:46:55;4.85;;;1.48;;
29384;SDS011;16367;48.736;9.218;2022-11-23T03:48:59;5.53;;;1.20;;
29384;SDS011;16367;48.736;9.218;2022-11-23T03:51:02;4.75;;;1.20;;
29384;SDS011;16367;48.736;9.218;2022-11-23T03:53:04;6.78;;;2.30;;
29384;SDS011;16367;48.736;9.218;2022-11-23T03:55:07;7.28;;;1.35;;
29384;SDS011;16367;48.736;9.218;2022-11-23T03:57:10;4.50;;;1.40;;
29384;SDS011;16367;48.736;9.218;2022-11-23T03:59:13;3.50;;;1.20;;
29384;SDS011;16367;48.736;9.218;2022-11-23T04:01:16;6.88;;;1.52;;
29384;SDS011;16367;48.736;9.218;2022-11-23T04:03:19;4.57;;;1.48;;
29384;SDS011;16367;48.736;9.218;2022-11-23T04:05:23;4.97;;;1.60;;
29384;SDS011;16367;48.736;9.218;2022-11-23T04:07:28;5.07;;;1.40;;
29384;SDS011;16367;48.736;9.218;2022-11-23T04:09:31;6.40;;;1.30;;
29384;SDS011;16367;48.736;9.218;2022-11-23T04:11:34;6.90;;;1.50;;
29384;SDS011;16367;48.736;9.218;2022-11-23T04:13:36;3.70;;;1.10;;
29384;SDS011;16367;48.736;9.218;2022-11-23T04:15:39;4.30;;;1.33;;
29384;SDS011;16367;48.736;9.218;2022-11-23T04:17:42;4.68;;;1.10;;
29384;SDS011;16367;48.736;9.218;2022-11-23T04:19:45;7.55;;;1.20;;
29384;SDS011;16367;48.736;9.218;2022-11-23T04:21:49;6.57;;;1.48;;
29384;SDS011;16367;48.736;9.218;2022-11-23T04:23:51;5.00;;;1.30;;
29384;SDS011;16367;48.736;9.218;2022-11-23T04:25:54;3.42;;;1.00;;
29384;SDS011;16367;48.736;9.218;2022-11-23T04:27:57;5.07;;;1.40;;
29384;SDS011;16367;48.736;9.218;2022-11-23T04:29:59;4.93;;;1.23;;
29384;SDS011;16367;48.736;9.218;2022-11-23T04:32:02;4.10;;;1.25;;
29384;SDS011;16367;48.736;9.218;2022-11-23T04:34:05;3.33;;;0.93;;
29384;SDS011;16367;48.736;9.218;2022-11-23T04:36:08;4.18;;;1.08;;
29384;SDS011;16367;48.736;9.218;2022-11-23T04:38:12;4.85;;;1.30;;
29384;SDS011;16367;48.736;9.218;2022-11-23T04:40:15;5.00;;;1.42;;
29384;SDS011;16367;48.736;9.218;2022-11-23T04:42:18;4.35;;;1.23;;
29384;SDS011;16367;48.736;9.218;2022-11-23T04:44:20;5.43;;;1.27;;
29384;SDS011;16367;48.736;9.218;2022-11-23T04:46:23;5.35;;;1.38;;
29384;SDS011;16367;48.736;9.218;2022-11-23T04:48:26;4.72;;;1.35;;
29384;SDS011;16367;48.736;9.218;2022-11-23T04:50:29;4.20;;;1.30;;
29384;SDS011;16367;48.736;9.218;2022-11-23T04:52:32;3.90;;;1.10;;
29384;SDS011;16367;48.736;9.218;2022-11-23T04:54:45;5.63;;;1.70;;
29384;SDS011;16367;48.736;9.218;2022-11-23T04:56:48;4.95;;;1.30;;
29384;SDS011;16367;48.736;9.218;2022-11-23T04:58:50;5.07;;;1.42;;
29384;SDS011;16367;48.736;9.218;2022-11-23T05:00:53;5.85;;;1.40;;
29384;SDS011;16367;48.736;9.218;2022-11-23T05:02:57;7.13;;;1.40;;
29384;SDS011;16367;48.736;9.218;2022-11-23T05:05:01;3.88;;;1.23;;
29384;SDS011;16367;48.736;9.218;2022-11-23T05:07:04;4.70;;;1.30;;
29384;SDS011;16367;48.736;9.218;2022-11-23T05:09:06;5.13;;;1.20;;
29384;SDS011;16367;48.736;9.218;2022-11-23T05:11:11;5.13;;;1.10;;
29384;SDS011;16367;48.736;9.218;2022-11-23T05:13:13;4.88;;;1.20;;
29384;SDS011;16367;48.736;9.218;2022-11-23T05:15:16;6.40;;;1.35;;
29384;SDS011;16367;48.736;9.218;2022-11-23T05:17:19;4.45;;;1.35;;
29384;SDS011;16367;48.736;9.218;2022-11-23T05:19:22;5.18;;;1.15;;
29384;SDS011;16367;48.736;9.218;2022-11-23T05:21:24;7.47;;;1.65;;
29384;SDS011;16367;48.736;9.218;2022-11-23T05:23:27;5.43;;;1.30;;
29384;SDS011;16367;48.736;9.218;2022-11-23T05:25:30;6.18;;;1.38;;
29384;SDS011;16367;48.736;9.218;2022-11-23T05:27:34;6.38;;;1.15;;
29384;SDS011;16367;48.736;9.218;2022-11-23T05:29:37;4.82;;;1.20;;
29384;SDS011;16367;48.736;9.218;2022-11-23T05:31:40;4.00;;;1.10;;
29384;SDS011;16367;48.736;9.218;2022-11-23T05:33:43;4.60;;;1.50;;
29384;SDS011;16367;48.736;9.218;2022-11-23T05:35:46;5.28;;;1.23;;
29384;SDS011;16367;48.736;9.218;2022-11-23T05:37:48;3.90;;;1.30;;
29384;SDS011;16367;48.736;9.218;2022-11-23T05:39:51;4.00;;;0.90;;
29384;SDS011;16367;48.736;9.218;2022-11-23T05:41:54;3.83;;;1.25;;
29384;SDS011;16367;48.736;9.218;2022-11-23T05:43:58;4.38;;;1.35;;
29384;SDS011;16367;48.736;9.218;2022-11-23T05:46:01;6.75;;;1.50;;
29384;SDS011;16367;48.736;9.218;2022-11-23T05:48:04;6.13;;;1.67;;
29384;SDS011;16367;48.736;9.218;2022-11-23T05:50:07;3.88;;;1.10;;
29384;SDS011;16367;48.736;9.218;2022-11-23T05:52:10;6.68;;;1.83;;
29384;SDS011;16367;48.736;9.218;2022-11-23T05:54:13;6.55;;;1.70;;
29384;SDS011;16367;48.736;9.218;2022-11-23T05:56:16;6.70;;;1.60;;
29384;SDS011;16367;48.736;9.218;2022-11-23T05:58:19;5.32;;;1.70;;
29384;SDS011;16367;48.736;9.218;2022-11-23T06:00:23;7.30;;;1.88;;
29384;SDS011;16367;48.736;9.218;2022-11-23T06:02:25;7.32;;;2.22;;
29384;SDS011;16367;48.736;9.218;2022-11-23T06:04:28;8.43;;;2.70;;
29384;SDS011;16367;48.736;9.218;2022-11-23T06:06:31;6.07;;;2.17;;
29384;SDS011;16367;48.736;9.218;2022-11-23T06:08:34;8.63;;;2.58;;
29384;SDS011;16367;48.736;9.218;2022-11-23T06:10:36;6.25;;;2.35;;
29384;SDS011;16367;48.736;9.218;2022-11-23T06:12:39;6.60;;;2.90;;
29384;SDS011;16367;48.736;9.218;2022-11-23T06:14:42;7.60;;;2.58;;
29384;SDS011;16367;48.736;9.218;2022-11-23T06:16:46;7.43;;;2.53;;
29384;SDS011;16367;48.736;9.218;2022-11-23T06:18:49;6.07;;;2.17;;
29384;SDS011;16367;48.736;9.218;2022-11-23T06:20:51;5.90;;;1.92;;
29384;SDS011;16367;48.736;9.218;2022-11-23T06:22:54;7.43;;;2.15;;
29384;SDS011;16367;48.736;9.218;2022-11-23T06:24:58;6.97;;;1.90;;
29384;SDS011;16367;48.736;9.218;2022-11-23T06:27:01;5.07;;;1.98;;
29384;SDS011;16367;48.736;9.218;2022-11-23T06:29:03;4.28;;;1.70;;
29384;SDS011;16367;48.736;9.218;2022-11-23T06:31:06;5.78;;;1.75;;
29384;SDS011;16367;48.736;9.218;2022-11-23T06:33:10;6.38;;;1.67;;
29384;SDS011;16367;48.736;9.218;2022-11-23T06:35:13;7.78;;;1.92;;
29384;SDS011;16367;48.736;9.218;2022-11-23T06:37:16;5.68;;;1.60;;
29384;SDS011;16367;48.736;9.218;2022-11-23T06:39:19;5.50;;;1.63;;
29384;SDS011;16367;48.736;9.218;2022-11-23T06:41:22;7.28;;;1.92;;
29384;SDS011;16367;48.736;9.218;2022-11-23T06:43:32;5.05;;;1.70;;
29384;SDS011;16367;48.736;9.218;2022-11-23T06:45:35;7.03;;;2.00;;
29384;SDS011;16367;48.736;9.218;2022-11-23T06:47:37;5.70;;;1.90;;
29384;SDS011;16367;48.736;9.218;2022-11-23T06:49:41;6.70;;;2.05;;
29384;SDS011;16367;48.736;9.218;2022-11-23T06:51:44;8.25;;;1.60;;
29384;SDS011;16367;48.736;9.218;2022-11-23T06:53:47;5.05;;;1.83;;
29384;SDS011;16367;48.736;9.218;2022-11-23T06:55:50;7.28;;;1.98;;
29384;SDS011;16367;48.736;9.218;2022-11-23T06:57:52;8.07;;;1.73;;
29384;SDS011;16367;48.736;9.218;2022-11-23T06:59:57;11.52;;;2.63;;
29384;SDS011;16367;48.736;9.218;2022-11-23T07:02:00;7.10;;;2.08;;
29384;SDS011;16367;48.736;9.218;2022-11-23T07:04:03;6.43;;;2.03;;
29384;SDS011;16367;48.736;9.218;2022-11-23T07:06:08;7.40;;;2.17;;
29384;SDS011;16367;48.736;9.218;2022-11-23T07:08:11;8.63;;;1.60;;
29384;SDS011;16367;48.736;9.218;2022-11-23T07:10:14;7.53;;;1.80;;
29384;SDS011;16367;48.736;9.218;2022-11-23T07:12:17;6.22;;;2.15;;
29384;SDS011;16367;48.736;9.218;2022-11-23T07:14:20;9.35;;;2.15;;
29384;SDS011;16367;48.736;9.218;2022-11-23T07:16:23;4.75;;;1.40;;
29384;SDS011;16367;48.736;9.218;2022-11-23T07:18:25;4.70;;;1.83;;
29384;SDS011;16367;48.736;9.218;2022-11-23T07:20:28;7.95;;;1.55;;
29384;SDS011;16367;48.736;9.218;2022-11-23T07:22:32;8.93;;;1.75;;
29384;SDS011;16367;48.736;9.218;2022-11-23T07:24:35;5.30;;;1.70;;
29384;SDS011;16367;48.736;9.218;2022-11-23T07:26:42;7.15;;;1.73;;
29384;SDS011;16367;48.736;9.218;2022-11-23T07:28:45;7.72;;;1.98;;
29384;SDS011;16367;48.736;9.218;2022-11-23T07:30:48;12.27;;;2.42;;
29384;SDS011;16367;48.736;9.218;2022-11-23T07:32:52;7.38;;;2.25;;
29384;SDS011;16367;48.736;9.218;2022-11-23T07:34:55;7.63;;;2.15;;
29384;SDS011;16367;48.736;9.218;2022-11-23T07:36:58;5.75;;;2.40;;
29384;SDS011;16367;48.736;9.218;2022-11-23T07:39:04;9.23;;;2.83;;
29384;SDS011;16367;48.736;9.218;2022-11-23T07:41:07;7.22;;;2.85;;
29384;SDS011;16367;48.736;9.218;2022-11-23T07:43:10;7.75;;;2.47;;
29384;SDS011;16367;48.736;9.218;2022-11-23T07:45:12;6.45;;;2.38;;
29384;SDS011;16367;48.736;9.218;2022-11-23T07:47:16;5.93;;;2.25;;
29384;SDS011;16367;48.736;9.218;2022-11-23T07:49:18;5.55;;;2.00;;
29384;SDS011;16367;48.736;9.218;2022-11-23T07:51:21;6.53;;;2.00;;
29384;SDS011;16367;48.736;9.218;2022-11-23T07:53:24;8.43;;;2.70;;
29384;SDS011;16367;48.736;9.218;2022-11-23T07:55:28;12.02;;;3.00;;
29384;SDS011;16367;48.736;9.218;2022-11-23T07:57:31;8.63;;;3.70;;
29384;SDS011;16367;48.736;9.218;2022-11-23T07:59:34;9.65;;;3.25;;
29384;SDS011;16367;48.736;9.218;2022-11-23T08:01:37;13.02;;;3.53;;
29384;SDS011;16367;48.736;9.218;2022-11-23T08:03:40;13.77;;;4.00;;
29384;SDS011;16367;48.736;9.218;2022-11-23T08:05:43;11.38;;;3.75;;
29384;SDS011;16367;48.736;9.218;2022-11-23T08:07:45;8.77;;;3.53;;
29384;SDS011;16367;48.736;9.218;2022-11-23T08:09:48;8.68;;;3.20;;
29384;SDS011;16367;48.736;9.218;2022-11-23T08:11:53;8.95;;;2.90;;
29384;SDS011;16367;48.736;9.218;2022-11-23T08:13:55;6.53;;;2.15;;
29384;SDS011;16367;48.736;9.218;2022-11-23T08:15:58;7.20;;;2.10;;
29384;SDS011;16367;48.736;9.218;2022-11-23T08:18:01;8.95;;;2.42;;
29384;SDS011;16367;48.736;9.218;2022-11-23T08:20:05;4.43;;;2.17;;
29384;SDS011;16367;48.736;9.218;2022-11-23T08:22:08;5.93;;;1.60;;
29384;SDS011;16367;48.736;9.218;2022-11-23T08:24:16;9.35;;;1.83;;
29384;SDS011;16367;48.736;9.218;2022-11-23T08:26:18;6.90;;;1.58;;
29384;SDS011;16367;48.736;9.218;2022-11-23T08:28:23;4.85;;;1.30;;
29384;SDS011;16367;48.736;9.218;2022-11-23T08:30:26;5.55;;;1.55;;
29384;SDS011;16367;48.736;9.218;2022-11-23T08:32:30;7.50;;;1.70;;
29384;SDS011;16367;48.736;9.218;2022-11-23T08:34:33;7.35;;;1.77;;
29384;SDS011;16367;48.736;9.218;2022-11-23T08:36:35;6.30;;;1.70;;
29384;SDS011;16367;48.736;9.218;2022-11-23T08:38:38;7.85;;;1.85;;
29384;SDS011;16367;48.736;9.218;2022-11-23T08:40:41;5.10;;;1.60;;
29384;SDS011;16367;48.736;9.218;2022-11-23T08:42:45;5.90;;;1.65;;
29384;SDS011;16367;48.736;9.218;2022-11-23T08:44:49;7.80;;;2.10;;
29384;SDS011;16367;48.736;9.218;2022-11-23T08:46:51;6.43;;;1.40;;
29384;SDS011;16367;48.736;9.218;2022-11-23T08:48:54;5.30;;;1.42;;
29384;SDS011;16367;48.736;9.218;2022-11-23T08:50:57;6.78;;;1.67;;
29384;SDS011;16367;48.736;9.218;2022-11-23T08:53:01;6.05;;;1.85;;
29384;SDS011;16367;48.736;9.218;2022-11-23T08:55:04;5.07;;;1.83;;
29384;SDS011;16367;48.736;9.218;2022-11-23T08:57:08;5.57;;;1.83;;
29384;SDS011;16367;48.736;9.218;2022-11-23T08:59:10;9.18;;;1.70;;
29384;SDS011;16367;48.736;9.218;2022-11-23T09:01:15;5.32;;;1.67;;
29384;SDS011;16367;48.736;9.218;2022-11-23T09:03:19;6.05;;;1.88;;
29384;SDS011;16367;48.736;9.218;2022-11-23T09:05:22;5.22;;;1.80;;
29384;SDS011;16367;48.736;9.218;2022-11-23T09:07:25;5.03;;;1.50;;
29384;SDS011;16367;48.736;9.218;2022-11-23T09:09:28;5.28;;;1.40;;
29384;SDS011;16367;48.736;9.218;2022-11-23T09:11:30;9.43;;;2.00;;
29384;SDS011;16367;48.736;9.218;2022-11-23T09:13:33;5.82;;;1.73;;
29384;SDS011;16367;48.736;9.218;2022-11-23T09:15:37;5.28;;;1.67;;
29384;SDS011;16367;48.736;9.218;2022-11-23T09:17:41;6.07;;;1.50;;
29384;SDS011;16367;48.736;9.218;2022-11-23T09:19:44;4.95;;;1.70;;
29384;SDS011;16367;48.736;9.218;2022-11-23T09:21:47;5.43;;;1.70;;
29384;SDS011;16367;48.736;9.218;2022-11-23T09:23:50;6.18;;;1.92;;
29384;SDS011;16367;48.736;9.218;2022-11-23T09:25:53;7.45;;;2.67;;
29384;SDS011;16367;48.736;9.218;2022-11-23T09:27:56;6.93;;;2.15;;
29384;SDS011;16367;48.736;9.218;2022-11-23T09:29:59;8.05;;;1.90;;
29384;SDS011;16367;48.736;9.218;2022-11-23T09:32:02;7.10;;;1.83;;
29384;SDS011;16367;48.736;9.218;2022-11-23T09:34:07;7.00;;;2.20;;
29384;SDS011;16367;48.736;9.218;2022-11-23T09:36:13;5.68;;;2.00;;
29384;SDS011;16367;48.736;9.218;2022-11-23T09:38:15;5.10;;;1.60;;
29384;SDS011;16367;48.736;9.218;2022-11-23T09:40:18;6.53;;;1.90;;
29384;SDS011;16367;48.736;9.218;2022-11-23T09:45:05;5.32;;;1.50;;
29384;SDS011;16367;48.736;9.218;2022-11-23T09:47:19;7.90;;;2.50;;
29384;SDS011;16367;48.736;9.218;2022-11-23T09:49:37;5.93;;;1.52;;
29384;SDS011;16367;48.736;9.218;2022-11-23T09:51:48;6.45;;;1.73;;
29384;SDS011;16367;48.736;9.218;2022-11-23T09:53:57;6.32;;;1.65;;
29384;SDS011;16367;48.736;9.218;2022-11-23T09:56:05;4.65;;;1.50;;
29384;SDS011;16367;48.736;9.218;2022-11-23T09:58:18;6.60;;;1.33;;
29384;SDS011;16367;48.736;9.218;2022-11-23T10:00:22;4.57;;;1.30;;
29384;SDS011;16367;48.736;9.218;2022-11-23T10:02:26;6.15;;;1.50;;
29384;SDS011;16367;48.736;9.218;2022-11-23T10:04:32;6.28;;;1.45;;
29384;SDS011;16367;48.736;9.218;2022-11-23T10:06:38;6.70;;;1.55;;
29384;SDS011;16367;48.736;9.218;2022-11-23T10:08:46;5.13;;;1.38;;
29384;SDS011;16367;48.736;9.218;2022-11-23T10:11:00;3.78;;;1.30;;
29384;SDS011;16367;48.736;9.218;2022-11-23T10:13:25;4.50;;;1.23;;
29384;SDS011;16367;48.736;9.218;2022-11-23T10:15:37;9.15;;;1.40;;
29384;SDS011;16367;48.736;9.218;2022-11-23T10:17:52;4.78;;;1.20;;
29384;SDS011;16367;48.736;9.218;2022-11-23T10:20:09;3.78;;;1.15;;
29384;SDS011;16367;48.736;9.218;2022-11-23T10:22:24;5.22;;;1.92;;
29384;SDS011;16367;48.736;9.218;2022-11-23T10:24:31;6.65;;;1.60;;
29384;SDS011;16367;48.736;9.218;2022-11-23T10:26:37;6.03;;;1.65;;
29384;SDS011;16367;48.736;9.218;2022-11-23T10:28:42;5.43;;;1.55;;
29384;SDS011;16367;48.736;9.218;2022-11-23T10:30:47;3.95;;;1.30;;
29384;SDS011;16367;48.736;9.218;2022-11-23T10:32:56;4.35;;;1.67;;
29384;SDS011;16367;48.736;9.218;2022-11-23T10:35:05;6.65;;;1.45;;
29384;SDS011;16367;48.736;9.218;2022-11-23T10:37:13;4.50;;;1.60;;
29384;SDS011;16367;48.736;9.218;2022-11-23T10:39:20;7.10;;;1.73;;
29384;SDS011;16367;48.736;9.218;2022-11-23T10:41:26;4.35;;;1.25;;
29384;SDS011;16367;48.736;9.218;2022-11-23T10:43:33;4.28;;;1.60;;
29384;SDS011;16367;48.736;9.218;2022-11-23T10:45:42;4.22;;;1.48;;
29384;SDS011;16367;48.736;9.218;2022-11-23T10:47:48;4.38;;;1.50;;
29384;SDS011;16367;48.736;9.218;2022-11-23T10:49:55;6.72;;;1.50;;
29384;SDS011;16367;48.736;9.218;2022-11-23T10:52:00;6.20;;;1.73;;
29384;SDS011;16367;48.736;9.218;2022-11-23T10:54:05;5.35;;;1.80;;
29384;SDS011;16367;48.736;9.218;2022-11-23T10:56:20;5.55;;;1.73;;
29384;SDS011;16367;48.736;9.218;2022-11-23T10:58:24;4.43;;;1.42;;
29384;SDS011;16367;48.736;9.218;2022-11-23T11:00:28;3.75;;;1.55;;
29384;SDS011;16367;48.736;9.218;2022-11-23T11:02:37;5.28;;;1.58;;
29384;SDS011;16367;48.736;9.218;2022-11-23T11:04:41;5.53;;;1.65;;
29384;SDS011;16367;48.736;9.218;2022-11-23T11:06:44;4.65;;;2.08;;
29384;SDS011;16367;48.736;9.218;2022-11-23T11:08:48;5.60;;;1.83;;
29384;SDS011;16367;48.736;9.218;2022-11-23T11:10:56;5.05;;;1.30;;
29384;SDS011;16367;48.736;9.218;2022-11-23T11:13:02;7.18;;;1.73;;
29384;SDS011;16367;48.736;9.218;2022-11-23T11:15:13;6.35;;;1.55;;
29384;SDS011;16367;48.736;9.218;2022-11-23T11:17:24;4.15;;;1.67;;
29384;SDS011;16367;48.736;9.218;2022-11-23T11:19:28;3.75;;;1.38;;
29384;SDS011;16367;48.736;9.218;2022-11-23T11:21:32;4.50;;;1.50;;
29384;SDS011;16367;48.736;9.218;2022-11-23T11:23:38;5.47;;;1.40;;
29384;SDS011;16367;48.736;9.218;2022-11-23T11:25:42;5.13;;;1.35;;
29384;SDS011;16367;48.736;9.218;2022-11-23T11:27:49;4.60;;;1.25;;
29384;SDS011;16367;48.736;9.218;2022-11-23T11:29:54;5.15;;;1.33;;
29384;SDS011;16367;48.736;9.218;2022-11-23T11:32:01;6.72;;;1.67;;
29384;SDS011;16367;48.736;9.218;2022-11-23T11:38:23;5.60;;;1.77;;
29384;SDS011;16367;48.736;9.218;2022-11-23T11:40:32;4.82;;;1.80;;
29384;SDS011;16367;48.736;9.218;2022-11-23T11:42:39;5.25;;;1.75;;
29384;SDS011;16367;48.736;9.218;2022-11-23T11:44:44;4.38;;;1.80;;
29384;SDS011;16367;48.736;9.218;2022-11-23T11:46:52;4.50;;;1.50;;
29384;SDS011;16367;48.736;9.218;2022-11-23T11:49:01;4.70;;;1.60;;
29384;SDS011;16367;48.736;9.218;2022-11-23T11:51:09;6.00;;;1.33;;
29384;SDS011;16367;48.736;9.218;2022-11-23T11:53:21;4.47;;;1.30;;
29384;SDS011;16367;48.736;9.218;2022-11-23T11:55:29;6.07;;;1.50;;
29384;SDS011;16367;48.736;9.218;2022-11-23T11:57:41;5.30;;;1.27;;
29384;SDS011;16367;48.736;9.218;2022-11-23T11:59:47;3.13;;;1.10;;
29384;SDS011;16367;48.736;9.218;2022-11-23T12:01:55;2.95;;;1.00;;
29384;SDS011;16367;48.736;9.218;2022-11-23T12:04:04;5.65;;;1.83;;
29384;SDS011;16367;48.736;9.218;2022-11-23T12:06:10;6.20;;;1.42;;
29384;SDS011;16367;48.736;9.218;2022-11-23T12:08:29;6.97;;;1.40;;
29384;SDS011;16367;48.736;9.218;2022-11-23T12:10:37;4.18;;;1.40;;
29384;SDS011;16367;48.736;9.218;2022-11-23T12:12:46;3.83;;;1.58;;
29384;SDS011;16367;48.736;9.218;2022-11-23T12:14:49;5.43;;;1.35;;
29384;SDS011;16367;48.736;9.218;2022-11-23T12:16:57;4.72;;;1.20;;
29384;SDS011;16367;48.736;9.218;2022-11-23T12:19:26;4.40;;;1.30;;
29384;SDS011;16367;48.736;9.218;2022-11-23T12:24:18;4.88;;;1.67;;
29384;SDS011;16367;48.736;9.218;2022-11-23T12:26:31;3.42;;;1.10;;
29384;SDS011;16367;48.736;9.218;2022-11-23T12:28:43;2.83;;;0.90;;
29384;SDS011;16367;48.736;9.218;2022-11-23T12:30:57;5.10;;;0.90;;
29384;SDS011;16367;48.736;9.218;2022-11-23T12:33:16;4.93;;;0.90;;
29384;SDS011;16367;48.736;9.218;2022-11-23T12:35:47;3.08;;;1.00;;
29384;SDS011;16367;48.736;9.218;2022-11-23T12:38:00;3.88;;;1.00;;
29384;SDS011;16367;48.736;9.218;2022-11-23T12:40:22;3.28;;;1.00;;
29384;SDS011;16367;48.736;9.218;2022-11-23T12:42:38;3.33;;;0.82;;